| time (UTC) | temp C | wind direction | speed KPH | gust KPH | rain 1hr cm | rain 24hr cm | rain mn cm | humidity % | barometer mb |
| 20260508040020 | 8 | 337 | 1.6 | 4.8 | 0.00 | 0.03 | 0.00 | 53 | 1007.7 |
| 20260508035040 | 8 | 319 | 1.6 | 8.0 | 0.00 | 0.03 | 0.03 | 53 | 1007.6 |
| 20260508034017 | 8 | 305 | 3.2 | 6.4 | 0.00 | 0.03 | 0.03 | 57 | 1007.7 |
| 20260508033017 | 9 | 321 | 1.6 | 4.8 | 0.00 | 0.03 | 0.03 | 53 | 1007.7 |
| 20260508032018 | 9 | 346 | 1.6 | 6.4 | 0.00 | 0.03 | 0.03 | 51 | 1007.6 |
| 20260508031059 | 9 | 324 | 3.2 | 8.0 | 0.00 | 0.03 | 0.03 | 52 | 1007.5 |
| 20260508030018 | 10 | 328 | 1.6 | 6.4 | 0.00 | 0.03 | 0.03 | 51 | 1007.6 |
| 20260508025018 | 10 | 6 | 1.6 | 4.8 | 0.00 | 0.03 | 0.03 | 50 | 1007.7 |
| 20260508024018 | 10 | 344 | 1.6 | 6.4 | 0.00 | 0.03 | 0.03 | 49 | 1007.6 |
| 20260508023059 | 10 | 337 | 3.2 | 9.7 | 0.00 | 0.03 | 0.03 | 48 | 1007.6 |
| 20260508022019 | 10 | 345 | 1.6 | 6.4 | 0.00 | 0.03 | 0.03 | 51 | 1007.4 |
| 20260508021019 | 10 | 331 | 1.6 | 6.4 | 0.00 | 0.03 | 0.03 | 50 | 1007.2 |
| 20260508020016 | 10 | 318 | 3.2 | 6.4 | 0.00 | 0.03 | 0.03 | 49 | 1007.1 |
| 20260508015019 | 11 | 317 | 1.6 | 4.8 | 0.00 | 0.03 | 0.03 | 49 | 1006.9 |
| 20260508014019 | 10 | 285 | 1.6 | 6.4 | 0.00 | 0.03 | 0.03 | 47 | 1006.7 |
| 20260508013039 | 10 | 279 | 1.6 | 4.8 | 0.00 | 0.03 | 0.03 | 51 | 1006.6 |
| 20260508012019 | 10 | 260 | 1.6 | 4.8 | 0.00 | 0.03 | 0.03 | 54 | 1006.5 |
| 20260508011017 | 10 | 257 | 1.6 | 4.8 | 0.00 | 0.03 | 0.03 | 55 | 1006.4 |
| 20260508010017 | 10 | 285 | 0.0 | 3.2 | 0.00 | 0.03 | 0.03 | 50 | 1006.4 |
| 20260508005016 | 11 | 252 | 0.0 | 4.8 | 0.00 | 0.03 | 0.03 | 46 | 1006.3 |
| 20260508004020 | 11 | 220 | 1.6 | 4.8 | 0.00 | 0.03 | 0.03 | 47 | 1006.1 |
| 20260508003018 | 11 | 233 | 1.6 | 3.2 | 0.00 | 0.03 | 0.03 | 51 | 1006.0 |
| 20260508002018 | 12 | 240 | 1.6 | 3.2 | 0.00 | 0.03 | 0.03 | 46 | 1005.9 |
| 20260508001017 | 12 | 265 | 1.6 | 6.4 | 0.00 | 0.05 | 0.03 | 42 | 1005.8 |
| 20260508000018 | 13 | 269 | 1.6 | 6.4 | 0.00 | 0.05 | 0.03 | 40 | 1005.7 |
| 20260507235018 | 13 | 274 | 3.2 | 8.0 | 0.00 | 0.08 | 0.03 | 38 | 1005.6 |
| 20260507234018 | 14 | 279 | 4.8 | 11.3 | 0.00 | 0.08 | 0.03 | 36 | 1005.6 |
| 20260507233018 | 15 | 291 | 4.8 | 12.9 | 0.00 | 0.08 | 0.03 | 35 | 1005.5 |
| 20260507232018 | 15 | 280 | 4.8 | 9.7 | 0.00 | 0.08 | 0.03 | 35 | 1005.5 |
| 20260507231019 | 15 | 276 | 6.4 | 14.5 | 0.00 | 0.08 | 0.03 | 34 | 1005.4 |
| 20260507230039 | 15 | 280 | 8.0 | 14.5 | 0.00 | 0.08 | 0.03 | 34 | 1005.4 |
| 20260507225019 | 16 | 294 | 6.4 | 16.1 | 0.00 | 0.08 | 0.03 | 33 | 1005.3 |
| 20260507224016 | 16 | 285 | 8.0 | 14.5 | 0.00 | 0.08 | 0.03 | 33 | 1005.1 |
| 20260507223016 | 16 | 287 | 8.0 | 19.3 | 0.00 | 0.10 | 0.03 | 33 | 1005.0 |
| 20260507222020 | 16 | 288 | 8.0 | 17.7 | 0.00 | 0.15 | 0.03 | 34 | 1005.0 |
| 20260507221040 | 16 | 280 | 9.7 | 17.7 | 0.00 | 0.15 | 0.03 | 34 | 1004.9 |
| 20260507220020 | 16 | 280 | 9.7 | 16.1 | 0.00 | 0.18 | 0.03 | 35 | 1004.8 |
| 20260507215017 | 16 | 280 | 8.0 | 14.5 | 0.00 | 0.20 | 0.03 | 35 | 1004.9 |
| 20260507214017 | 16 | 272 | 11.3 | 20.9 | 0.00 | 0.20 | 0.03 | 35 | 1004.9 |
| 20260507213017 | 16 | 303 | 8.0 | 19.3 | 0.00 | 0.23 | 0.03 | 35 | 1004.9 |
| 20260507212016 | 16 | 276 | 8.0 | 16.1 | 0.00 | 0.25 | 0.03 | 37 | 1004.9 |
| 20260507211016 | 16 | 292 | 9.7 | 20.9 | 0.00 | 0.25 | 0.03 | 36 | 1004.9 |
| 20260507210018 | 16 | 291 | 8.0 | 17.7 | 0.00 | 0.30 | 0.03 | 36 | 1004.9 |
| 20260507205018 | 16 | 305 | 8.0 | 16.1 | 0.00 | 0.36 | 0.03 | 37 | 1004.7 |
| 20260507204017 | 16 | 320 | 6.4 | 12.9 | 0.00 | 0.41 | 0.03 | 37 | 1004.7 |
| 20260507203017 | 16 | 286 | 9.7 | 25.7 | 0.00 | 0.46 | 0.03 | 37 | 1004.7 |
| 20260507202018 | 17 | 278 | 9.7 | 19.3 | 0.00 | 0.51 | 0.03 | 35 | 1004.7 |
| 20260507201018 | 16 | 284 | 8.0 | 14.5 | 0.00 | 0.58 | 0.03 | 35 | 1004.7 |
| 20260507200015 | 16 | 282 | 11.3 | 19.3 | 0.00 | 0.61 | 0.03 | 36 | 1004.8 |
| 20260507195018 | 16 | 268 | 12.9 | 20.9 | 0.00 | 0.61 | 0.03 | 37 | 1004.8 |
| 20260507194018 | 16 | 265 | 11.3 | 24.1 | 0.00 | 0.64 | 0.03 | 37 | 1004.9 |
| 20260507193018 | 16 | 286 | 11.3 | 20.9 | 0.00 | 0.66 | 0.03 | 36 | 1004.9 |
| 20260507192038 | 16 | 283 | 9.7 | 19.3 | 0.00 | 0.69 | 0.03 | 36 | 1005.1 |
| 20260507191017 | 16 | 273 | 11.3 | 20.9 | 0.00 | 0.71 | 0.03 | 36 | 1005.1 |
| 20260507190017 | 16 | 265 | 11.3 | 19.3 | 0.00 | 0.71 | 0.03 | 37 | 1005.0 |
| 20260507185017 | 16 | 259 | 9.7 | 19.3 | 0.00 | 0.74 | 0.03 | 37 | 1005.1 |
| 20260507184019 | 16 | 281 | 9.7 | 20.9 | 0.00 | 0.74 | 0.03 | 40 | 1005.2 |
| 20260507183019 | 16 | 273 | 9.7 | 17.7 | 0.00 | 0.76 | 0.03 | 43 | 1005.3 |
| 20260507182017 | 16 | 289 | 9.7 | 19.3 | 0.00 | 0.76 | 0.03 | 44 | 1005.3 |
| 20260507181018 | 16 | 266 | 11.3 | 19.3 | 0.00 | 0.76 | 0.03 | 48 | 1005.4 |
| 20260507180018 | 15 | 281 | 9.7 | 19.3 | 0.00 | 0.76 | 0.03 | 52 | 1005.5 |
| 20260507175018 | 15 | 294 | 9.7 | 17.7 | 0.00 | 0.76 | 0.03 | 55 | 1005.5 |
| 20260507174018 | 15 | 282 | 11.3 | 20.9 | 0.00 | 0.76 | 0.03 | 53 | 1005.4 |
| 20260507173019 | 16 | 255 | 11.3 | 20.9 | 0.00 | 0.76 | 0.03 | 50 | 1005.5 |
| 20260507172019 | 15 | 264 | 11.3 | 22.5 | 0.00 | 0.76 | 0.03 | 51 | 1005.6 |
| 20260507171019 | 15 | 282 | 11.3 | 24.1 | 0.00 | 0.76 | 0.03 | 51 | 1005.8 |
| 20260507170019 | 15 | 266 | 9.7 | 20.9 | 0.00 | 0.76 | 0.03 | 53 | 1005.8 |
| 20260507165059 | 15 | 283 | 8.0 | 17.7 | 0.00 | 0.76 | 0.03 | 55 | 1005.9 |
| 20260507164039 | 15 | 281 | 9.7 | 19.3 | 0.00 | 0.76 | 0.03 | 54 | 1006.0 |
| 20260507163016 | 15 | 255 | 11.3 | 17.7 | 0.00 | 0.76 | 0.03 | 55 | 1006.0 |
| 20260507162016 | 15 | 258 | 11.3 | 16.1 | 0.00 | 0.76 | 0.03 | 53 | 1006.0 |
| 20260507161040 | 13 | 286 | 6.4 | 16.1 | 0.00 | 0.76 | 0.03 | 58 | 1006.1 |
| 20260507160040 | 12 | 268 | 4.8 | 11.3 | 0.00 | 0.76 | 0.03 | 69 | 1006.3 |
| 20260507155037 | 12 | 215 | 3.2 | 9.7 | 0.00 | 0.76 | 0.03 | 70 | 1006.4 |
| 20260507154017 | 12 | 212 | 4.8 | 12.9 | 0.00 | 0.76 | 0.03 | 68 | 1006.5 |
| 20260507153017 | 12 | 215 | 4.8 | 9.7 | 0.00 | 0.76 | 0.03 | 70 | 1006.6 |
| 20260507152017 | 12 | 218 | 4.8 | 12.9 | 0.00 | 0.76 | 0.03 | 74 | 1006.7 |
| 20260507151018 | 12 | 208 | 3.2 | 9.7 | 0.00 | 0.76 | 0.03 | 72 | 1006.8 |
| 20260507150020 | 12 | 206 | 4.8 | 12.9 | 0.00 | 0.76 | 0.03 | 71 | 1006.7 |
| 20260507145018 | 12 | 214 | 4.8 | 11.3 | 0.00 | 0.76 | 0.03 | 71 | 1006.7 |
| 20260507144018 | 12 | 205 | 4.8 | 12.9 | 0.00 | 0.76 | 0.03 | 74 | 1006.7 |
| 20260507143018 | 12 | 212 | 4.8 | 9.7 | 0.00 | 0.76 | 0.03 | 72 | 1006.7 |
| 20260507142019 | 11 | 218 | 4.8 | 11.3 | 0.00 | 0.76 | 0.03 | 76 | 1006.8 |
| 20260507141018 | 11 | 217 | 3.2 | 11.3 | 0.00 | 0.76 | 0.03 | 78 | 1006.9 |
| 20260507140019 | 11 | 215 | 4.8 | 11.3 | 0.00 | 0.76 | 0.03 | 78 | 1007.0 |
| 20260507135016 | 11 | 204 | 3.2 | 11.3 | 0.00 | 0.76 | 0.03 | 79 | 1007.1 |
| 20260507134019 | 12 | 223 | 3.2 | 9.7 | 0.00 | 0.76 | 0.03 | 76 | 1007.2 |
| 20260507133019 | 12 | 255 | 4.8 | 11.3 | 0.00 | 0.76 | 0.03 | 70 | 1007.2 |
| 20260507132019 | 12 | 327 | 4.8 | 9.7 | 0.00 | 0.76 | 0.03 | 68 | 1007.3 |
| 20260507131019 | 12 | 299 | 6.4 | 12.9 | 0.00 | 0.76 | 0.03 | 69 | 1007.4 |
| 20260507130016 | 12 | 295 | 6.4 | 16.1 | 0.00 | 0.76 | 0.03 | 70 | 1007.4 |
| 20260507125020 | 11 | 290 | 6.4 | 14.5 | 0.00 | 0.76 | 0.03 | 69 | 1007.3 |
| 20260507124020 | 11 | 308 | 6.4 | 14.5 | 0.00 | 0.76 | 0.03 | 70 | 1007.4 |
| 20260507123020 | 11 | 312 | 4.8 | 9.7 | 0.00 | 0.76 | 0.03 | 74 | 1007.3 |
| 20260507122040 | 10 | 283 | 4.8 | 9.7 | 0.00 | 0.76 | 0.03 | 80 | 1007.3 |
| 20260507121018 | 10 | 300 | 3.2 | 9.7 | 0.00 | 0.76 | 0.03 | 84 | 1007.2 |
| 20260507120018 | 10 | 289 | 4.8 | 11.3 | 0.00 | 0.76 | 0.03 | 89 | 1007.2 |
| 20260507115017 | 9 | 272 | 1.6 | 6.4 | 0.00 | 0.76 | 0.03 | 91 | 1007.2 |
| 20260507114018 | 9 | 287 | 3.2 | 8.0 | 0.00 | 0.76 | 0.03 | 92 | 1007.4 |
| 20260507113023 | 9 | 331 | 1.6 | 4.8 | 0.00 | 0.76 | 0.03 | 93 | 1007.1 |
| 20260507112041 | 8 | 322 | 1.6 | 6.4 | 0.00 | 0.76 | 0.03 | 93 | 1007.1 |
| 20260507111019 | 8 | 323 | 1.6 | 6.4 | 0.00 | 0.76 | 0.03 | 94 | 1007.1 |
| 20260507110019 | 8 | 317 | 3.2 | 6.4 | 0.00 | 0.76 | 0.03 | 94 | 1007.2 |
| 20260507105059 | 8 | 302 | 1.6 | 4.8 | 0.00 | 0.76 | 0.03 | 94 | 1007.3 |
| 20260507104019 | 8 | 322 | 1.6 | 6.4 | 0.00 | 0.76 | 0.03 | 94 | 1007.1 |
| 20260507103019 | 8 | 328 | 3.2 | 6.4 | 0.00 | 0.76 | 0.03 | 94 | 1007.2 |
| 20260507102019 | 8 | 311 | 3.2 | 6.4 | 0.00 | 0.76 | 0.03 | 95 | 1007.3 |
| 20260507101040 | 8 | 288 | 3.2 | 6.4 | 0.00 | 0.76 | 0.03 | 95 | 1007.3 |
| 20260507100020 | 8 | 304 | 3.2 | 8.0 | 0.00 | 0.76 | 0.03 | 96 | 1007.0 |
| 20260507095019 | 8 | 315 | 3.2 | 6.4 | 0.00 | 0.76 | 0.03 | 95 | 1007.0 |
| 20260507094023 | 8 | 288 | 3.2 | 6.4 | 0.03 | 0.76 | 0.03 | 95 | 1007.3 |
| 20260507093040 | 8 | 315 | 1.6 | 6.4 | 0.03 | 0.76 | 0.03 | 95 | 1006.7 |
| 20260507092017 | 8 | 289 | 3.2 | 6.4 | 0.03 | 0.76 | 0.03 | 94 | 1007.0 |
| 20260507091017 | 9 | 304 | 1.6 | 4.8 | 0.03 | 0.76 | 0.03 | 94 | 1006.7 |
| 20260507090100 | 9 | 316 | 1.6 | 4.8 | 0.03 | 0.76 | 0.03 | 93 | 1006.6 |
| 20260507085041 | 9 | 335 | 1.6 | 6.4 | 0.03 | 0.76 | 0.03 | 91 | 1006.5 |
| 20260507084059 | 9 | 348 | 3.2 | 8.0 | 0.03 | 0.74 | 0.03 | 90 | 1006.3 |
| 20260507083018 | 10 | 328 | 3.2 | 6.4 | 0.00 | 0.74 | 0.00 | 90 | 1006.6 |
| 20260507082018 | 10 | 314 | 3.2 | 9.7 | 0.00 | 0.74 | 0.00 | 90 | 1006.6 |
| 20260507081018 | 10 | 306 | 3.2 | 6.4 | 0.00 | 0.74 | 0.00 | 90 | 1006.3 |
| 20260507080018 | 10 | 321 | 1.6 | 4.8 | 0.00 | 0.74 | 0.00 | 91 | 1006.2 |
| 20260507075039 | 10 | 302 | 3.2 | 8.0 | 0.00 | 0.74 | 0.00 | 90 | 1006.0 |
| 20260507074019 | 10 | 312 | 3.2 | 8.0 | 0.00 | 0.74 | 0.00 | 90 | 1005.9 |
| 20260507073019 | 10 | 318 | 3.2 | 9.7 | 0.00 | 0.74 | 0.00 | 89 | 1006.0 |
| 20260507072039 | 10 | 296 | 4.8 | 9.7 | 0.00 | 0.74 | 0.00 | 89 | 1006.0 |
| 20260507071019 | 10 | 290 | 6.4 | 12.9 | 0.00 | 0.74 | 0.00 | 90 | 1005.8 |
| 20260507070019 | 10 | 291 | 4.8 | 12.9 | 0.00 | 0.74 | 0.00 | 94 | 1005.5 |
| 20260507065020 | 10 | 291 | 3.2 | 8.0 | 0.00 | 0.74 | 0.00 | 95 | 1005.5 |
| 20260507064017 | 10 | 288 | 4.8 | 9.7 | 0.00 | 0.74 | 0.00 | 95 | 1005.4 |
| 20260507063020 | 11 | 282 | 3.2 | 8.0 | 0.00 | 0.74 | 0.00 | 94 | 1005.6 |
| 20260507062020 | 11 | 277 | 3.2 | 4.8 | 0.00 | 0.74 | 0.00 | 92 | 1005.5 |
| 20260507061020 | 11 | 277 | 3.2 | 8.0 | 0.00 | 0.74 | 0.00 | 90 | 1005.5 |
| 20260507060020 | 11 | 285 | 6.4 | 12.9 | 0.00 | 0.74 | 0.00 | 90 | 1005.3 |
| 20260507055018 | 11 | 278 | 6.4 | 12.9 | 0.00 | 0.74 | 0.00 | 91 | 1005.4 |
| 20260507054018 | 11 | 285 | 6.4 | 11.3 | 0.00 | 0.74 | 0.00 | 91 | 1005.1 |
| 20260507053018 | 11 | 290 | 4.8 | 12.9 | 0.00 | 0.74 | 0.00 | 94 | 1005.0 |
| 20260507052019 | 12 | 264 | 4.8 | 9.7 | 0.00 | 0.74 | 0.00 | 94 | 1005.2 |
| 20260507051041 | 12 | 277 | 6.4 | 11.3 | 0.00 | 0.74 | 0.00 | 93 | 1005.2 |
| 20260507050018 | 12 | 272 | 4.8 | 8.0 | 0.00 | 0.74 | 0.00 | 93 | 1005.0 |
| 20260507045018 | 12 | 272 | 6.4 | 12.9 | 0.00 | 0.74 | 0.00 | 92 | 1005.0 |
| 20260507044019 | 12 | 266 | 8.0 | 17.7 | 0.00 | 0.74 | 0.00 | 94 | 1005.1 |
| 20260507043019 | 12 | 271 | 6.4 | 12.9 | 0.00 | 0.74 | 0.00 | 98 | 1005.1 |
| 20260507042019 | 12 | 280 | 4.8 | 11.3 | 0.00 | 0.74 | 0.00 | 99 | 1004.8 |
| 20260507041019 | 12 | 291 | 4.8 | 9.7 | 0.00 | 0.74 | 0.00 | 99 | 1004.7 |